createdAt,value
2017-11-23T00:02:13.916Z,19.00
2017-11-23T00:04:41.501Z,19.73
2017-11-23T00:07:09.074Z,17.17
2017-11-23T00:09:36.855Z,19.60
2017-11-23T00:12:04.951Z,18.77
2017-11-23T00:14:32.515Z,20.60
2017-11-23T00:17:00.745Z,17.37
2017-11-23T00:19:28.309Z,17.60
2017-11-23T00:21:55.938Z,17.47
2017-11-23T00:24:23.533Z,16.77
2017-11-23T00:26:51.954Z,17.80
2017-11-23T00:29:19.517Z,20.17
2017-11-23T00:31:47.152Z,14.27
2017-11-23T00:34:14.861Z,17.47
2017-11-23T00:36:43.228Z,16.77
2017-11-23T00:39:10.829Z,15.13
2017-11-23T00:41:38.440Z,15.03
2017-11-23T00:44:06.006Z,14.47
2017-11-23T00:46:33.612Z,16.47
2017-11-23T00:49:01.224Z,16.13
2017-11-23T00:51:28.807Z,20.00
2017-11-23T00:53:57.186Z,15.07
2017-11-23T00:56:24.847Z,16.17
2017-11-23T00:58:52.450Z,14.63
2017-11-23T01:01:20.036Z,15.20
2017-11-23T01:03:47.613Z,15.30
2017-11-23T01:06:18.100Z,13.97
2017-11-23T01:08:46.476Z,15.53
2017-11-23T01:11:14.053Z,14.03
2017-11-23T01:13:41.623Z,16.60
2017-11-23T01:16:09.259Z,13.40
2017-11-23T01:18:36.840Z,13.63
2017-11-23T01:21:04.406Z,13.10
2017-11-23T01:23:32.011Z,15.83
2017-11-23T01:26:00.373Z,13.80
2017-11-23T01:28:28.164Z,16.37
2017-11-23T01:30:55.760Z,14.83
2017-11-23T01:33:23.333Z,12.37
2017-11-23T01:35:50.887Z,11.37
2017-11-23T01:38:18.500Z,13.33
2017-11-23T01:40:46.072Z,13.27
2017-11-23T01:43:13.631Z,12.80
2017-11-23T01:45:41.196Z,12.07
2017-11-23T01:48:08.800Z,12.50
2017-11-23T01:50:37.231Z,13.23
2017-11-23T01:53:04.789Z,13.40
2017-11-23T01:55:33.115Z,14.53
2017-11-23T01:58:00.676Z,14.00
2017-11-23T02:00:28.252Z,13.50
2017-11-23T02:02:55.892Z,12.17
2017-11-23T02:05:23.475Z,15.00
2017-11-23T02:07:51.248Z,12.07
2017-11-23T02:10:18.862Z,10.93
2017-11-23T02:12:46.602Z,11.03
2017-11-23T02:15:14.193Z,10.40
2017-11-23T02:17:41.887Z,11.60
2017-11-23T02:20:09.441Z,10.80
2017-11-23T02:22:37.787Z,10.43
2017-11-23T02:25:05.393Z,11.17
2017-11-23T02:27:32.987Z,10.67
2017-11-23T02:30:00.597Z,13.07
2017-11-23T02:32:28.176Z,11.73
2017-11-23T02:34:55.810Z,11.03
2017-11-23T02:37:23.382Z,11.63
2017-11-23T02:39:51.634Z,12.43
2017-11-23T02:42:19.223Z,10.27
2017-11-23T02:44:46.847Z,11.63
2017-11-23T02:47:14.677Z,14.00
2017-11-23T02:49:42.242Z,11.93
2017-11-23T02:52:09.842Z,9.37
2017-11-23T02:54:37.415Z,8.17
2017-11-23T02:57:05.234Z,10.47
2017-11-23T02:59:32.811Z,10.17
2017-11-23T03:02:00.436Z,8.53
2017-11-23T03:04:28.004Z,10.43
2017-11-23T03:06:56.384Z,10.40
2017-11-23T03:09:23.977Z,11.50
2017-11-23T03:11:51.591Z,10.30
2017-11-23T03:14:19.957Z,10.50
2017-11-23T03:16:47.541Z,9.43
2017-11-23T03:19:15.162Z,9.00
2017-11-23T03:21:42.770Z,8.90
2017-11-23T03:24:10.381Z,8.87
2017-11-23T03:26:38.746Z,10.07
2017-11-23T03:29:06.323Z,7.23
2017-11-23T03:31:33.880Z,7.33
2017-11-23T03:34:01.512Z,8.33
2017-11-23T03:36:29.071Z,8.30
2017-11-23T03:38:56.696Z,10.13
2017-11-23T03:41:25.063Z,7.77
2017-11-23T03:43:53.378Z,8.70
2017-11-23T03:46:20.952Z,7.97
2017-11-23T03:48:48.548Z,8.23
2017-11-23T03:51:16.128Z,7.10
2017-11-23T03:53:43.733Z,9.90
2017-11-23T03:56:11.341Z,7.37
2017-11-23T03:58:38.929Z,8.13
2017-11-23T04:01:06.619Z,8.30
2017-11-23T04:03:34.201Z,6.60
2017-11-23T04:06:01.807Z,12.97
2017-11-23T04:08:30.186Z,7.17
2017-11-23T04:10:58.555Z,8.23
2017-11-23T04:13:26.129Z,9.30
2017-11-23T04:15:53.738Z,10.83
2017-11-23T04:18:21.317Z,13.07
2017-11-23T04:20:48.924Z,13.33
2017-11-23T04:23:16.585Z,8.87
2017-11-23T04:25:44.208Z,10.47
2017-11-23T04:28:12.575Z,9.90
2017-11-23T04:30:40.154Z,8.20
2017-11-23T04:33:07.709Z,8.43
2017-11-23T04:35:35.262Z,6.23
2017-11-23T04:38:02.878Z,8.97
2017-11-23T04:40:30.486Z,6.23
2017-11-23T04:42:58.079Z,8.27
2017-11-23T04:45:26.596Z,7.37
2017-11-23T04:47:54.179Z,7.00
2017-11-23T04:50:21.812Z,11.90
2017-11-23T04:52:49.416Z,5.50
2017-11-23T04:55:17.033Z,7.97
2017-11-23T04:57:44.620Z,7.10
2017-11-23T05:00:13.041Z,7.13
2017-11-23T05:02:40.605Z,5.63
2017-11-23T05:05:09.052Z,7.53
2017-11-23T05:07:36.611Z,7.27
2017-11-23T05:10:04.227Z,6.03
2017-11-23T05:12:31.787Z,5.37
2017-11-23T05:14:59.393Z,5.43
2017-11-23T05:17:27.051Z,5.10
2017-11-23T05:19:54.616Z,6.43
2017-11-23T05:22:22.935Z,6.97
2017-11-23T05:24:51.334Z,5.27
2017-11-23T05:27:18.893Z,7.07
2017-11-23T05:29:46.496Z,9.13
2017-11-23T05:32:14.972Z,7.40
2017-11-23T05:34:42.591Z,6.50
2017-11-23T05:37:10.204Z,7.60
2017-11-23T05:39:37.787Z,5.73
2017-11-23T05:42:06.140Z,4.50
2017-11-23T05:44:33.924Z,5.63
2017-11-23T05:47:02.301Z,7.13
2017-11-23T05:49:30.660Z,5.73
2017-11-23T05:51:58.261Z,5.43
2017-11-23T05:54:25.841Z,6.73
2017-11-23T05:56:53.516Z,5.20
2017-11-23T05:59:21.288Z,6.63
2017-11-23T06:01:48.902Z,5.73
2017-11-23T06:04:17.263Z,6.23
2017-11-23T06:06:44.837Z,7.00
2017-11-23T06:09:12.410Z,4.97
2017-11-23T06:11:40.028Z,6.83
2017-11-23T06:14:07.608Z,5.27
2017-11-23T06:16:35.328Z,7.93
2017-11-23T06:19:03.032Z,6.53
2017-11-23T06:21:30.610Z,5.43
2017-11-23T06:23:58.932Z,7.23
2017-11-23T06:26:26.588Z,7.03
2017-11-23T06:28:54.287Z,9.47
2017-11-23T06:31:21.978Z,6.17
2017-11-23T06:33:51.218Z,5.17
2017-11-23T06:36:18.853Z,7.63
2017-11-23T06:38:46.440Z,7.73
2017-11-23T06:41:16.588Z,7.10
2017-11-23T06:43:44.913Z,6.30
2017-11-23T06:46:12.740Z,5.23
2017-11-23T06:48:40.322Z,4.97
2017-11-23T06:51:08.648Z,6.03
2017-11-23T06:53:36.405Z,8.13
2017-11-23T06:56:04.111Z,4.87
2017-11-23T06:58:31.710Z,5.67
2017-11-23T07:00:59.351Z,5.10
2017-11-23T07:03:26.948Z,6.60
2017-11-23T07:05:54.536Z,5.23
2017-11-23T07:08:22.096Z,5.30
2017-11-23T07:10:49.671Z,4.70
2017-11-23T07:13:17.809Z,4.97
2017-11-23T07:15:45.414Z,5.27
2017-11-23T07:18:12.966Z,4.23
2017-11-23T07:20:40.546Z,6.20
2017-11-23T07:23:08.861Z,6.87
2017-11-23T07:25:36.436Z,5.33
2017-11-23T07:28:04.055Z,15.63
2017-11-23T07:30:31.644Z,5.17
2017-11-23T07:32:59.239Z,5.70
2017-11-23T07:35:26.807Z,6.43
2017-11-23T07:37:54.384Z,7.17
2017-11-23T07:40:22.807Z,4.93
2017-11-23T07:42:50.382Z,6.53
2017-11-23T07:45:18.013Z,9.23
2017-11-23T07:47:46.115Z,5.03
2017-11-23T07:50:13.800Z,6.03
2017-11-23T07:52:41.777Z,5.17
2017-11-23T07:55:09.329Z,6.03
2017-11-23T07:57:37.301Z,5.50
2017-11-23T08:00:04.945Z,7.50
2017-11-23T08:02:33.371Z,6.60
2017-11-23T08:05:01.305Z,4.90
2017-11-23T08:07:29.665Z,9.23
2017-11-23T08:09:57.264Z,6.53
2017-11-23T08:12:24.892Z,6.77
2017-11-23T08:14:52.544Z,5.87
2017-11-23T08:17:20.203Z,5.70
2017-11-23T08:19:47.965Z,4.97
2017-11-23T08:22:15.556Z,6.13
2017-11-23T08:24:45.421Z,4.73
2017-11-23T08:27:13.056Z,7.47
2017-11-23T08:29:40.664Z,7.23
2017-11-23T08:32:08.251Z,5.00
2017-11-23T08:34:35.808Z,6.20
2017-11-23T08:37:03.446Z,4.27
2017-11-23T08:39:31.013Z,9.87
2017-11-23T08:41:58.649Z,6.67
2017-11-23T08:44:26.258Z,6.10
2017-11-23T08:46:53.832Z,6.37
2017-11-23T08:49:22.221Z,4.67
2017-11-23T08:51:49.851Z,6.27
2017-11-23T08:54:17.422Z,4.80
2017-11-23T08:56:46.913Z,3.47
2017-11-23T08:59:14.498Z,5.87
2017-11-23T09:01:42.111Z,4.47
2017-11-23T09:04:09.747Z,7.43
2017-11-23T09:06:37.347Z,4.70
2017-11-23T09:09:04.940Z,4.23
2017-11-23T09:11:32.591Z,6.57
2017-11-23T09:14:00.161Z,5.73
2017-11-23T09:16:27.808Z,5.07
2017-11-23T09:18:56.620Z,5.03
2017-11-23T09:21:24.222Z,4.90
2017-11-23T09:23:52.437Z,7.20
2017-11-23T09:26:20.611Z,6.70
2017-11-23T09:28:48.237Z,10.97
2017-11-23T09:31:16.056Z,6.40
2017-11-23T09:33:43.639Z,6.03
2017-11-23T09:36:11.943Z,6.83
2017-11-23T09:38:39.575Z,3.63
2017-11-23T09:41:07.456Z,9.93
2017-11-23T09:43:35.099Z,6.23
2017-11-23T09:46:05.179Z,6.43
2017-11-23T09:48:32.804Z,4.33
2017-11-23T09:51:00.370Z,4.47
2017-11-23T09:53:28.146Z,5.03
2017-11-23T09:55:55.727Z,4.13
2017-11-23T09:58:23.441Z,3.87
2017-11-23T10:00:51.080Z,7.40
2017-11-23T10:03:19.443Z,3.83
2017-11-23T10:05:47.042Z,7.77
2017-11-23T10:08:14.674Z,4.90
2017-11-23T10:10:42.253Z,7.17
2017-11-23T10:13:09.827Z,4.97
2017-11-23T10:15:38.316Z,4.17
2017-11-23T10:18:05.877Z,5.87
2017-11-23T10:20:33.967Z,5.27
2017-11-23T10:23:01.677Z,4.87
2017-11-23T10:25:30.064Z,6.47
2017-11-23T10:27:57.759Z,3.77
2017-11-23T10:30:25.331Z,7.83
2017-11-23T10:32:53.061Z,5.87
2017-11-23T10:35:21.444Z,6.87
2017-11-23T10:37:49.692Z,5.07
2017-11-23T10:40:17.254Z,7.37
2017-11-23T10:42:45.604Z,6.93
2017-11-23T10:45:13.949Z,6.13
2017-11-23T10:47:41.525Z,5.07
2017-11-23T10:50:09.323Z,7.23
2017-11-23T10:52:36.978Z,5.77
2017-11-23T10:55:04.566Z,7.67
2017-11-23T10:57:32.889Z,7.90
2017-11-23T11:00:01.320Z,12.77
2017-11-23T11:02:29.672Z,5.20
2017-11-23T11:04:57.307Z,5.77
2017-11-23T11:07:24.885Z,5.03
2017-11-23T11:09:52.476Z,6.87
2017-11-23T11:12:20.204Z,7.33
2017-11-23T11:14:47.820Z,6.77
2017-11-23T11:17:15.916Z,5.80
2017-11-23T11:19:43.683Z,6.63
2017-11-23T11:22:11.900Z,3.93
2017-11-23T11:24:39.507Z,4.53
2017-11-23T11:27:07.845Z,4.37
2017-11-23T11:29:36.350Z,15.67
2017-11-23T11:32:04.738Z,3.70
2017-11-23T11:34:32.316Z,6.87
2017-11-23T11:36:59.924Z,5.43
2017-11-23T11:39:27.555Z,4.87
2017-11-23T11:41:55.142Z,6.23
2017-11-23T11:44:22.959Z,5.80
2017-11-23T11:46:50.546Z,10.87
2017-11-23T11:49:19.874Z,4.63
2017-11-23T11:51:47.424Z,9.93
2017-11-23T11:54:16.837Z,6.07
2017-11-23T11:56:44.956Z,6.17
2017-11-23T11:59:14.754Z,4.07
2017-11-23T12:01:42.374Z,5.30
2017-11-23T12:04:10.856Z,5.27
2017-11-23T12:06:38.488Z,5.70
2017-11-23T12:09:06.133Z,9.40
2017-11-23T12:11:33.717Z,8.87
2017-11-23T12:14:13.240Z,4.17
2017-11-23T12:19:52.098Z,5.33
2017-11-23T12:22:31.753Z,7.03
2017-11-23T12:25:02.317Z,4.70
2017-11-23T12:27:41.797Z,4.47
2017-11-23T12:30:12.168Z,5.13
2017-11-23T12:32:39.774Z,6.37
2017-11-23T12:35:08.161Z,4.27
2017-11-23T12:37:37.448Z,8.60
2017-11-23T12:40:05.771Z,5.17
2017-11-23T12:42:33.331Z,5.93
2017-11-23T12:45:01.451Z,5.07
2017-11-23T12:47:29.016Z,4.87
2017-11-23T12:49:56.652Z,7.63
2017-11-23T12:52:24.392Z,4.67
2017-11-23T12:54:52.054Z,6.00
2017-11-23T12:57:19.610Z,5.63
2017-11-23T12:59:47.223Z,5.80
2017-11-23T13:02:15.007Z,4.97
2017-11-23T13:04:42.564Z,5.40
2017-11-23T13:07:10.925Z,4.80
2017-11-23T13:09:39.149Z,5.83
2017-11-23T13:12:06.962Z,4.57
2017-11-23T13:14:34.668Z,5.40
2017-11-23T13:17:02.280Z,5.97
2017-11-23T13:19:30.673Z,4.17
2017-11-23T13:21:58.282Z,4.17
2017-11-23T13:24:26.000Z,4.30
2017-11-23T13:26:53.604Z,3.83
2017-11-23T13:29:23.193Z,4.77
2017-11-23T13:31:50.813Z,4.93
2017-11-23T13:34:20.220Z,4.27
2017-11-23T13:36:48.247Z,3.70
2017-11-23T13:39:15.918Z,3.90
2017-11-23T13:41:43.506Z,7.23
2017-11-23T13:44:11.959Z,4.33
2017-11-23T13:46:39.518Z,3.70
2017-11-23T13:49:07.175Z,4.17
2017-11-23T13:51:34.945Z,4.97
2017-11-23T13:54:02.513Z,5.17
2017-11-23T13:56:30.125Z,4.07
2017-11-23T13:58:58.491Z,4.40
2017-11-23T14:01:26.543Z,4.43
2017-11-23T14:03:54.106Z,5.33
2017-11-23T14:06:21.783Z,3.63
2017-11-23T14:08:49.345Z,5.77
2017-11-23T14:11:16.951Z,4.90
2017-11-23T14:13:44.619Z,13.37
2017-11-23T14:16:12.382Z,4.93
2017-11-23T14:18:39.972Z,6.07
2017-11-23T14:21:07.585Z,4.47
2017-11-23T14:23:35.927Z,4.53
2017-11-23T14:26:03.484Z,4.47
2017-11-23T14:28:31.108Z,7.00
2017-11-23T14:30:58.788Z,3.87
2017-11-23T14:33:26.865Z,4.37
2017-11-23T14:35:54.523Z,5.40
2017-11-23T14:38:22.323Z,4.97
2017-11-23T14:40:51.566Z,5.17
2017-11-23T14:43:19.392Z,7.77
2017-11-23T14:45:47.723Z,4.93
2017-11-23T14:48:16.435Z,5.27
2017-11-23T14:50:43.998Z,13.17
2017-11-23T14:53:11.599Z,5.90
2017-11-23T14:55:39.216Z,6.83
2017-11-23T14:58:06.820Z,5.53
2017-11-23T15:00:34.437Z,6.20
2017-11-23T15:03:03.591Z,5.57
2017-11-23T15:05:31.693Z,6.53
2017-11-23T15:08:01.908Z,3.87
2017-11-23T15:10:29.561Z,4.23
2017-11-23T15:12:57.208Z,4.50
2017-11-23T15:15:24.756Z,5.10
2017-11-23T15:17:52.546Z,8.00
2017-11-23T15:20:20.113Z,23.87
2017-11-23T15:22:47.720Z,13.17
2017-11-23T15:25:16.057Z,5.57
2017-11-23T15:27:43.642Z,4.50
2017-11-23T15:30:11.198Z,5.43
2017-11-23T15:32:38.802Z,4.30
2017-11-23T15:35:06.444Z,6.13
2017-11-23T15:37:35.685Z,4.17
2017-11-23T15:40:03.294Z,6.13
2017-11-23T15:42:32.377Z,6.73
2017-11-23T15:45:00.649Z,6.17
2017-11-23T15:47:28.266Z,10.30
2017-11-23T15:49:55.843Z,7.03
2017-11-23T15:52:23.911Z,7.70
2017-11-23T15:54:51.485Z,6.33
2017-11-23T15:57:20.670Z,5.23
2017-11-23T15:59:48.435Z,4.37
2017-11-23T16:02:17.662Z,5.47
2017-11-23T16:04:45.265Z,8.23
2017-11-23T16:07:13.138Z,5.63
2017-11-23T16:09:41.230Z,6.60
2017-11-23T16:12:10.637Z,6.73
2017-11-23T16:14:38.403Z,6.27
2017-11-23T16:17:06.788Z,7.40
2017-11-23T16:19:37.047Z,5.60
2017-11-23T16:22:05.789Z,7.10
2017-11-23T16:24:34.814Z,6.00
2017-11-23T16:27:03.271Z,6.00
2017-11-23T16:29:31.211Z,5.50
2017-11-23T16:32:00.179Z,6.13
2017-11-23T16:34:28.708Z,4.17
2017-11-23T16:36:58.516Z,5.00
2017-11-23T16:39:26.358Z,5.63
2017-11-23T16:41:59.996Z,5.93
2017-11-23T16:47:44.877Z,5.60
2017-11-23T16:53:18.806Z,5.67
2017-11-23T16:55:52.722Z,6.43
2017-11-23T16:58:37.492Z,6.23
2017-11-23T17:01:11.129Z,9.67
2017-11-23T17:03:44.639Z,7.80
2017-11-23T17:06:18.173Z,6.17
2017-11-23T17:08:46.351Z,6.37
2017-11-23T17:11:19.597Z,5.57
2017-11-23T17:13:53.617Z,9.63
2017-11-23T17:19:23.078Z,9.90
2017-11-23T17:21:50.803Z,11.13
2017-11-23T17:24:18.400Z,6.83
2017-11-23T17:26:45.996Z,6.40
2017-11-23T17:29:13.662Z,5.47
2017-11-23T17:31:44.521Z,7.97
2017-11-23T17:34:12.402Z,6.83
2017-11-23T17:36:40.750Z,7.43
2017-11-23T17:39:08.356Z,7.00
2017-11-23T17:41:36.132Z,6.90
2017-11-23T17:44:03.786Z,9.23
2017-11-23T17:46:31.338Z,6.60
2017-11-23T17:49:01.276Z,9.30
2017-11-23T17:51:29.456Z,6.23
2017-11-23T17:53:57.832Z,5.00
2017-11-23T17:56:27.139Z,9.10
2017-11-23T17:58:55.998Z,7.47
2017-11-23T18:01:24.721Z,6.73
2017-11-23T18:03:53.088Z,8.43
2017-11-23T18:06:21.779Z,23.13
2017-11-23T18:08:50.224Z,37.43
2017-11-23T18:11:20.267Z,6.77
2017-11-23T18:13:49.235Z,5.70
2017-11-23T18:16:17.788Z,7.77
2017-11-23T18:18:45.619Z,6.30
2017-11-23T18:21:13.956Z,5.53
2017-11-23T18:23:41.950Z,5.70
2017-11-23T18:26:10.511Z,9.10
2017-11-23T18:28:38.169Z,9.13
2017-11-23T18:31:05.895Z,6.23
2017-11-23T18:33:34.099Z,8.47
2017-11-23T18:36:02.583Z,6.40
2017-11-23T18:38:30.957Z,8.57
2017-11-23T18:40:58.543Z,5.83
2017-11-23T18:43:26.117Z,16.83
2017-11-23T18:45:53.749Z,6.53
2017-11-23T18:48:22.602Z,15.97
2017-11-23T18:50:50.226Z,14.10
2017-11-23T18:53:17.803Z,6.60
2017-11-23T18:55:45.569Z,5.40
2017-11-23T18:58:14.106Z,6.80
2017-11-23T19:00:41.982Z,9.70
2017-11-23T19:03:10.348Z,6.93
2017-11-23T19:05:37.976Z,6.40
2017-11-23T19:08:05.559Z,7.87
2017-11-23T19:10:33.240Z,8.83
2017-11-23T19:13:01.357Z,7.13
2017-11-23T19:15:29.670Z,7.73
2017-11-23T19:17:57.242Z,10.73
2017-11-23T19:20:26.123Z,11.77
2017-11-23T19:22:54.633Z,9.13
2017-11-23T19:25:22.329Z,6.50
2017-11-23T19:27:50.102Z,19.23
2017-11-23T19:30:17.729Z,10.37
2017-11-23T19:32:45.306Z,10.10
2017-11-23T19:35:12.946Z,7.93
2017-11-23T19:37:40.583Z,7.33
2017-11-23T19:40:08.176Z,8.03
2017-11-23T19:42:35.780Z,8.93
2017-11-23T19:45:03.633Z,8.60
2017-11-23T19:47:31.292Z,9.50
2017-11-23T19:49:58.949Z,7.00
2017-11-23T19:52:26.511Z,8.53
2017-11-23T19:54:54.079Z,15.67
2017-11-23T19:57:21.748Z,10.77
2017-11-23T19:59:49.475Z,6.27
2017-11-23T20:02:17.140Z,8.50
2017-11-23T20:04:45.176Z,7.63
2017-11-23T20:07:12.804Z,7.73
2017-11-23T20:09:40.401Z,15.17
2017-11-23T20:12:08.791Z,9.37
2017-11-23T20:14:36.401Z,15.80
2017-11-23T20:17:04.017Z,17.87
2017-11-23T20:19:32.384Z,9.70
2017-11-23T20:22:00.204Z,5.73
2017-11-23T20:24:28.649Z,7.40
2017-11-23T20:26:56.782Z,11.73
2017-11-23T20:29:25.172Z,5.80
2017-11-23T20:31:52.820Z,7.03
2017-11-23T20:34:20.451Z,6.97
2017-11-23T20:36:48.052Z,7.93
2017-11-23T20:39:15.684Z,6.67
2017-11-23T20:41:43.378Z,6.03
2017-11-23T20:44:10.939Z,5.57
2017-11-23T20:46:38.805Z,25.37
2017-11-23T20:49:06.423Z,23.77
2017-11-23T20:51:33.985Z,9.97
2017-11-23T20:54:02.122Z,6.30
2017-11-23T20:56:29.748Z,7.17
2017-11-23T20:58:57.310Z,8.93
2017-11-23T21:01:26.383Z,11.83
2017-11-23T21:03:54.704Z,8.97
2017-11-23T21:06:23.794Z,5.80
2017-11-23T21:08:51.566Z,18.33
2017-11-23T21:11:19.605Z,7.33
2017-11-23T21:13:47.452Z,6.23
2017-11-23T21:16:15.392Z,6.90
2017-11-23T21:18:43.279Z,9.67
2017-11-23T21:21:10.942Z,8.63
2017-11-23T21:23:38.640Z,9.03
2017-11-23T21:26:07.110Z,8.97
2017-11-23T21:28:34.745Z,7.20
2017-11-23T21:31:02.508Z,5.00
2017-11-23T21:33:30.084Z,5.73
2017-11-23T21:35:58.334Z,5.77
2017-11-23T21:38:27.060Z,7.47
2017-11-23T21:40:54.672Z,5.43
2017-11-23T21:43:22.377Z,5.20
2017-11-23T21:45:51.470Z,7.30
2017-11-23T21:48:19.101Z,6.33
2017-11-23T21:50:46.802Z,9.93
2017-11-23T21:53:14.404Z,7.00
2017-11-23T21:55:42.813Z,8.70
2017-11-23T21:58:11.887Z,7.63
2017-11-23T22:00:40.014Z,9.70
2017-11-23T22:03:08.014Z,8.30
2017-11-23T22:05:37.451Z,7.50
2017-11-23T22:08:05.952Z,6.60
2017-11-23T22:10:35.079Z,11.70
2017-11-23T22:13:03.242Z,13.63
2017-11-23T22:15:32.385Z,6.30
2017-11-23T22:18:00.567Z,11.23
2017-11-23T22:20:30.215Z,8.00
2017-11-23T22:22:58.498Z,6.57
2017-11-23T22:25:26.257Z,7.57
2017-11-23T22:27:54.499Z,6.50
2017-11-23T22:30:22.504Z,9.10
2017-11-23T22:32:51.099Z,12.20
2017-11-23T22:35:18.951Z,11.60
2017-11-23T22:37:48.599Z,5.70
2017-11-23T22:40:16.171Z,6.50
2017-11-23T22:42:43.888Z,5.37
2017-11-23T22:45:13.480Z,7.83
2017-11-23T22:47:42.012Z,8.80
2017-11-23T22:50:09.614Z,8.90
2017-11-23T22:52:37.357Z,6.80
2017-11-23T22:55:04.943Z,11.20
2017-11-23T22:57:32.552Z,12.17
2017-11-23T23:00:00.103Z,7.37
2017-11-23T23:02:27.757Z,6.27
2017-11-23T23:04:55.869Z,8.23
2017-11-23T23:07:23.479Z,5.33
2017-11-23T23:09:51.085Z,4.97
2017-11-23T23:12:19.423Z,6.53
2017-11-23T23:14:47.048Z,6.27
2017-11-23T23:17:14.633Z,6.47
2017-11-23T23:19:42.714Z,5.67
2017-11-23T23:22:10.288Z,6.63
2017-11-23T23:24:37.872Z,7.57
2017-11-23T23:27:05.478Z,8.50
2017-11-23T23:29:33.168Z,10.40
2017-11-23T23:32:00.782Z,15.80
2017-11-23T23:34:29.113Z,7.90
2017-11-23T23:36:56.748Z,7.27
2017-11-23T23:39:24.313Z,7.40
2017-11-23T23:41:51.987Z,10.47
2017-11-23T23:44:19.564Z,7.37
2017-11-23T23:46:47.406Z,9.40
2017-11-23T23:49:15.009Z,10.50
2017-11-23T23:51:42.596Z,11.97
2017-11-23T23:54:10.973Z,8.23
2017-11-23T23:56:38.643Z,7.87
2017-11-23T23:59:06.435Z,6.37
